Time;durP1;ratioP1;P1;durP2;ratioP2;P2;SDS_P1;SDS_P2;PMS_P1;PMS_P2;Temp;Humidity;BMP_temperature;BMP_pressure;BME280_temperature;BME280_humidity;BME280_pressure;Samples;Min_cycle;Max_cycle;Signal;HPM_P1;HPM_P2
2022/11/21 00:01:25;;;;;;;;;;;7.80;68.40;;;3.08;100.00;95071.19;4970299;28;19922;-57
2022/11/21 00:03:51;;;;;;;;;;;7.80;68.40;;;3.05;100.00;95064.53;4951138;28;20000;-58
2022/11/21 00:06:22;;;;;;;;;;;7.70;68.40;;;3.08;100.00;95064.06;4953805;28;20048;-55
2022/11/21 00:08:49;;;;;;;;;;;7.70;68.60;;;3.06;100.00;95058.22;4965758;28;19910;-57
2022/11/21 00:11:15;;;;;;;;;;;7.70;68.60;;;3.06;100.00;95063.50;4953475;28;19969;-56
2022/11/21 00:13:46;;;;;;;;;;;7.70;68.70;;;3.10;100.00;95055.94;4952686;28;20326;-56
2022/11/21 00:16:15;;;;;;;;;;;7.70;68.90;;;3.14;100.00;95057.91;4959345;28;20311;-57
2022/11/21 00:18:42;;;;;;;;;;;7.70;69.00;;;3.22;100.00;95062.00;4951973;28;20383;-55
2022/11/21 00:21:16;;;;;;;;;;;7.80;69.20;;;3.26;100.00;95055.25;4955861;28;19916;-54
2022/11/21 00:23:47;;;;;;;;;;;7.80;69.20;;;3.27;100.00;95064.75;4942344;28;19921;-56
2022/11/21 00:26:15;;;;;;;;;;;7.80;69.30;;;3.30;100.00;95066.13;4963253;28;19914;-57
2022/11/21 00:28:50;;;;;;;;;;;7.90;69.20;;;3.28;100.00;95061.06;4946096;28;19917;-57
2022/11/21 00:31:25;;;;;;;;;;;7.90;69.10;;;3.29;100.00;95051.34;4954866;28;19957;-57
2022/11/21 00:33:51;;;;;;;;;;;7.90;69.10;;;3.32;100.00;95051.69;4953047;28;19909;-56
2022/11/21 00:36:17;;;;;;;;;;;7.90;69.10;;;3.36;100.00;95046.78;4952821;28;19960;-55
2022/11/21 00:38:47;;;;;;;;;;;7.90;69.00;;;3.36;100.00;95038.88;4964678;28;19920;-54
2022/11/21 00:41:13;;;;;;;;;;;8.00;69.10;;;3.38;100.00;95036.78;4964117;28;19980;-53
2022/11/21 00:43:42;;;;;;;;;;;8.00;69.20;;;3.42;100.00;95032.66;4959548;28;19910;-58
2022/11/21 00:46:08;;;;;;;;;;;8.00;69.20;;;3.46;100.00;95031.16;4952401;28;20332;-56
2022/11/21 00:48:33;;;;;;;;;;;8.10;69.30;;;3.46;100.00;95029.31;4936159;28;19913;-58
2022/11/21 00:51:00;;;;;;;;;;;8.10;69.20;;;3.41;100.00;95026.59;4971966;28;20359;-56
2022/11/21 00:53:27;;;;;;;;;;;8.10;69.00;;;3.41;100.00;95036.31;4954369;28;19921;-56
2022/11/21 00:55:53;;;;;;;;;;;8.10;69.00;;;3.40;100.00;95025.00;4945302;28;19948;-54
2022/11/21 00:58:18;;;;;;;;;;;8.10;69.20;;;3.49;100.00;95038.59;4956861;28;19910;-57
2022/11/21 01:00:47;;;;;;;;;;;8.10;69.30;;;3.53;100.00;95038.94;4967396;28;19925;-54
2022/11/21 01:03:16;;;;;;;;;;;8.10;69.20;;;3.53;100.00;95031.03;4958397;28;19977;-57
2022/11/21 01:05:42;;;;;;;;;;;8.20;69.30;;;3.58;100.00;95036.41;4952712;28;19980;-55
2022/11/21 01:08:11;;;;;;;;;;;8.20;69.30;;;3.63;100.00;95028.59;4964809;28;19914;-54
2022/11/21 01:10:37;;;;;;;;;;;8.30;69.40;;;3.69;100.00;95027.66;4952599;28;19949;-53
2022/11/21 01:13:11;;;;;;;;;;;8.30;69.40;;;3.72;100.00;95022.72;4954652;28;19948;-57
2022/11/21 01:15:40;;;;;;;;;;;8.30;69.30;;;3.73;99.90;95020.91;4935569;28;19945;-52
2022/11/21 01:18:32;;;;;;;;;;;8.30;69.20;;;3.75;99.89;95029.34;4952309;28;20265;-55
2022/11/21 01:21:11;;;;;;;;;;;8.30;69.20;;;3.74;99.73;95011.94;4941899;28;19910;-56
2022/11/21 01:23:40;;;;;;;;;;;8.40;69.30;;;3.77;99.99;95022.03;4944810;28;19917;-54
2022/11/21 01:26:19;;;;;;;;;;;8.40;69.30;;;3.79;99.68;95011.22;4951525;28;20426;-51
2022/11/21 01:28:51;;;;;;;;;;;8.40;69.20;;;3.81;99.67;95004.69;4945747;28;19917;-52
2022/11/21 01:31:20;;;;;;;;;;;8.40;69.20;;;3.81;99.52;95004.69;4934690;28;19949;-53
2022/11/21 01:33:53;;;;;;;;;;;8.40;69.20;;;3.84;99.50;95000.81;4962941;28;19955;-53
2022/11/21 01:36:26;;;;;;;;;;;8.40;69.10;;;3.85;99.46;94990.00;4938515;28;19910;-56
2022/11/21 01:38:56;;;;;;;;;;;8.50;69.20;;;3.84;99.17;94985.78;4952216;28;20009;-53
2022/11/21 01:41:34;;;;;;;;;;;8.50;69.10;;;3.86;99.27;94980.28;4919669;29;19924;-57
2022/11/21 01:44:26;;;;;;;;;;;8.50;69.80;;;3.79;98.82;94969.91;4947689;28;20380;-53
2022/11/21 01:46:53;;;;;;;;;;;8.50;68.90;;;3.79;99.07;94956.72;4950155;28;19921;-54
2022/11/21 01:49:27;;;;;;;;;;;8.50;68.90;;;3.78;98.58;94954.31;4952633;28;19917;-56
2022/11/21 01:52:02;;;;;;;;;;;8.50;68.90;;;3.75;99.19;94954.78;4940727;28;20296;-55
2022/11/21 01:54:35;;;;;;;;;;;8.50;68.90;;;3.76;99.34;94948.47;4944503;28;19976;-54
2022/11/21 01:57:25;;;;;;;;;;;8.50;69.00;;;3.77;98.95;94943.00;4951742;28;19914;-51
2022/11/21 02:00:12;;;;;;;;;;;8.50;69.00;;;3.82;98.88;94919.34;4938775;28;19922;-53
2022/11/21 02:03:03;;;;;;;;;;;8.50;69.00;;;3.82;98.73;94893.00;4950466;28;20292;-57
2022/11/21 02:05:36;;;;;;;;;;;8.50;68.90;;;3.73;98.78;94907.63;4954729;28;20004;-57
2022/11/21 02:08:12;;;;;;;;;;;8.50;68.80;;;3.69;98.02;94911.75;4952521;28;20328;-57
2022/11/21 02:10:57;;;;;;;;;;;8.40;68.80;;;3.72;97.02;94900.75;4935589;29;20427;-55
2022/11/21 02:13:24;;;;;;;;;;;8.50;69.10;;;3.81;96.37;94901.94;4943188;28;19978;-56
2022/11/21 02:15:50;;;;;;;;;;;8.50;69.10;;;3.85;95.86;94897.00;4954336;28;19914;-54
2022/11/21 02:18:15;;;;;;;;;;;8.50;69.10;;;3.90;95.65;94903.16;4955478;28;19913;-56
2022/11/21 02:21:01;;;;;;;;;;;8.50;69.10;;;3.92;94.89;94901.09;4955758;28;20411;-55
2022/11/21 02:23:47;;;;;;;;;;;8.50;69.00;;;3.94;94.26;94895.56;4956153;28;19916;-56
2022/11/21 02:26:12;;;;;;;;;;;8.50;68.90;;;3.96;94.56;94903.25;4965932;28;19993;-52
2022/11/21 02:28:38;;;;;;;;;;;8.60;68.90;;;3.98;93.66;94891.44;4937889;28;19914;-51
2022/11/21 02:31:04;;;;;;;;;;;8.60;68.80;;;4.02;93.57;94889.13;4955732;28;20020;-55
2022/11/21 02:33:30;;;;;;;;;;;8.60;68.80;;;4.00;93.23;94880.63;4956032;28;19910;-56
2022/11/21 02:35:59;;;;;;;;;;;8.60;68.70;;;3.99;93.65;94881.69;4954194;28;19914;-56
2022/11/21 02:38:41;;;;;;;;;;;8.60;68.60;;;4.00;93.59;94878.78;4960523;28;20269;-54
2022/11/21 02:41:25;;;;;;;;;;;8.60;68.50;;;4.01;92.50;94890.97;4973398;28;19909;-55
2022/11/21 02:44:03;;;;;;;;;;;8.60;68.50;;;4.05;93.00;94888.63;4966271;28;19909;-54
2022/11/21 02:46:29;;;;;;;;;;;8.70;68.50;;;4.08;93.13;94882.88;4954576;28;19917;-57
2022/11/21 02:49:07;;;;;;;;;;;8.70;68.50;;;4.07;92.13;94883.91;4955380;28;20288;-57
2022/11/21 02:51:32;;;;;;;;;;;8.70;68.40;;;4.13;92.63;94883.72;4954107;28;19964;-54
2022/11/21 02:53:58;;;;;;;;;;;8.70;68.30;;;4.14;92.19;94869.53;4937834;28;19997;-54
2022/11/21 02:56:24;;;;;;;;;;;8.80;68.30;;;4.15;92.42;94870.34;4958892;28;19917;-53
2022/11/21 02:58:52;;;;;;;;;;;8.80;68.20;;;4.13;91.94;94865.28;4953114;28;19941;-54
2022/11/21 03:01:18;;;;;;;;;;;8.70;68.10;;;4.14;92.81;94866.91;4957723;28;20321;-53
2022/11/21 03:03:47;;;;;;;;;;;8.80;68.10;;;4.16;92.03;94875.34;4952477;28;19997;-54
2022/11/21 03:06:12;;;;;;;;;;;8.80;68.20;;;4.22;92.61;94873.59;4937758;28;19916;-54
2022/11/21 03:08:38;;;;;;;;;;;8.80;68.20;;;4.21;92.70;94874.63;4966493;28;19910;-52
2022/11/21 03:11:04;;;;;;;;;;;8.80;68.10;;;4.24;92.33;94876.78;4954940;28;19910;-57
2022/11/21 03:13:30;;;;;;;;;;;8.80;68.10;;;4.25;91.66;94867.03;4939232;28;19999;-52
2022/11/21 03:15:58;;;;;;;;;;;8.80;68.10;;;4.29;92.13;94865.50;4955031;28;19914;-54
2022/11/21 03:18:27;;;;;;;;;;;8.80;68.10;;;4.30;92.20;94861.84;4937288;28;20273;-54
2022/11/21 03:20:52;;;;;;;;;;;8.80;68.00;;;4.29;93.49;94854.97;4959650;28;19929;-56
2022/11/21 03:23:24;;;;;;;;;;;8.90;68.00;;;4.26;93.80;94860.72;4954101;28;20292;-52
2022/11/21 03:25:58;;;;;;;;;;;8.80;67.90;;;4.24;93.58;94844.38;4948515;28;20004;-55
2022/11/21 03:28:24;;;;;;;;;;;8.80;67.90;;;4.24;94.00;94847.00;4936734;28;20285;-56
2022/11/21 03:30:55;;;;;;;;;;;8.80;67.90;;;4.17;93.65;94847.97;4937089;28;19917;-51
2022/11/21 03:33:21;;;;;;;;;;;8.70;67.90;;;4.17;94.78;94841.91;4937076;28;19957;-56
2022/11/21 03:35:47;;;;;;;;;;;8.70;68.10;;;4.16;94.90;94850.81;4936536;28;19922;-58
2022/11/21 03:38:25;;;;;;;;;;;8.70;68.10;;;4.16;96.05;94846.34;4944255;28;19910;-56
2022/11/21 03:40:51;;;;;;;;;;;8.70;68.10;;;4.14;95.66;94851.09;4939525;28;19976;-53
2022/11/21 03:43:16;;;;;;;;;;;8.70;68.30;;;4.13;95.84;94846.03;4941409;28;19910;-55
2022/11/21 03:45:46;;;;;;;;;;;8.60;68.30;;;4.12;95.62;94839.19;4939601;28;19932;-55
2022/11/21 03:48:14;;;;;;;;;;;8.60;68.40;;;4.15;96.36;94849.25;4955706;28;19917;-53
2022/11/21 03:50:43;;;;;;;;;;;8.60;68.40;;;4.13;96.28;94846.84;4967780;28;19910;-54
2022/11/21 03:53:10;;;;;;;;;;;8.60;68.60;;;4.12;96.40;94845.25;4936880;28;20012;-58
2022/11/21 03:55:38;;;;;;;;;;;8.60;68.60;;;4.12;96.71;94844.44;4939602;28;20013;-54
2022/11/21 03:58:04;;;;;;;;;;;8.60;68.70;;;4.12;96.19;94839.97;4953346;28;19910;-56
2022/11/21 04:00:33;;;;;;;;;;;8.60;68.80;;;4.12;96.18;94834.69;4979122;23;19921;-50
2022/11/21 04:02:59;;;;;;;;;;;8.60;68.80;;;4.13;95.87;94838.94;4990925;28;19913;-48
2022/11/21 04:05:30;;;;;;;;;;;8.60;68.80;;;4.13;95.74;94836.28;4992758;28;19915;-48
2022/11/21 04:07:56;;;;;;;;;;;8.60;68.90;;;4.14;95.52;94837.13;4986987;28;20393;-48
2022/11/21 04:10:23;;;;;;;;;;;8.70;68.90;;;4.14;95.79;94837.91;4987309;28;19914;-48
2022/11/21 04:12:48;;;;;;;;;;;8.70;68.90;;;4.14;96.46;94848.44;4969739;28;19997;-50
2022/11/21 04:15:14;;;;;;;;;;;8.70;68.90;;;4.15;97.01;94849.25;4986813;28;20004;-53
2022/11/21 04:17:40;;;;;;;;;;;8.70;68.80;;;4.13;97.14;94838.94;4971730;28;20398;-49
2022/11/21 04:20:06;;;;;;;;;;;8.70;68.70;;;4.13;97.66;94838.13;4970278;28;19932;-49
2022/11/21 04:22:32;;;;;;;;;;;8.70;68.70;;;4.07;97.06;94836.47;4972170;28;19909;-53
2022/11/21 04:24:58;;;;;;;;;;;8.70;68.80;;;4.06;97.26;94824.34;4969355;28;19944;-50
2022/11/21 04:27:24;;;;;;;;;;;8.70;68.80;;;4.05;96.94;94820.09;4967646;28;19957;-49
2022/11/21 04:29:52;;;;;;;;;;;8.60;68.80;;;4.05;97.67;94847.25;4970679;28;19922;-48
2022/11/21 04:32:18;;;;;;;;;;;8.60;68.90;;;4.04;97.98;94842.22;4966255;28;19910;-50
2022/11/21 04:34:44;;;;;;;;;;;8.60;68.90;;;4.04;96.96;94837.75;4971667;28;19913;-50
2022/11/21 04:37:13;;;;;;;;;;;8.60;68.90;;;4.06;97.45;94840.94;4971533;28;19913;-49
2022/11/21 04:39:44;;;;;;;;;;;8.60;68.90;;;4.05;97.07;94842.00;4971876;28;19942;-48
2022/11/21 04:42:10;;;;;;;;;;;8.60;69.00;;;4.06;96.53;94834.88;4971136;28;20261;-52
2022/11/21 04:44:39;;;;;;;;;;;8.60;69.00;;;4.08;96.46;94824.91;4963018;28;19920;-49
2022/11/21 04:47:04;;;;;;;;;;;8.60;69.00;;;4.08;96.42;94838.06;4972489;28;19917;-48
2022/11/21 04:49:30;;;;;;;;;;;8.60;68.90;;;4.08;96.38;94836.25;4969680;28;19913;-48
2022/11/21 04:51:56;;;;;;;;;;;8.60;69.00;;;4.10;95.93;94834.13;4971650;28;19932;-48
2022/11/21 04:54:28;;;;;;;;;;;8.70;69.00;;;4.11;96.06;94827.84;4971118;28;19927;-50
2022/11/21 04:56:53;;;;;;;;;;;8.70;69.00;;;4.12;96.17;94821.53;4969833;28;19920;-49
2022/11/21 04:59:19;;;;;;;;;;;8.70;68.90;;;4.09;95.44;94829.13;4973147;28;19914;-48
2022/11/21 05:01:45;;;;;;;;;;;8.70;68.90;;;4.09;95.49;94826.47;4988415;28;19999;-48
2022/11/21 05:04:11;;;;;;;;;;;8.70;68.80;;;4.10;94.83;94828.06;4990331;28;19910;-49
2022/11/21 05:06:37;;;;;;;;;;;8.70;68.80;;;4.13;95.06;94814.41;4989676;28;19909;-50
2022/11/21 05:09:02;;;;;;;;;;;8.70;68.70;;;4.11;95.02;94833.13;4973069;28;19915;-52
2022/11/21 05:14:13;;;;;;;;;;;8.70;68.60;;;4.05;95.24;94825.38;4979611;28;19964;-48
2022/11/21 05:16:41;;;;;;;;;;;8.70;68.40;;;4.04;95.23;94832.50;4970929;28;19969;-48
2022/11/21 05:19:10;;;;;;;;;;;8.70;68.40;;;4.03;95.65;94830.09;4972897;28;19909;-48
2022/11/21 05:21:36;;;;;;;;;;;8.70;68.40;;;4.03;95.86;94843.25;4990739;28;19913;-54
2022/11/21 05:24:02;;;;;;;;;;;8.70;68.50;;;4.01;95.96;94838.25;4991301;28;19916;-55
2022/11/21 05:26:33;;;;;;;;;;;8.70;68.50;;;4.02;95.83;94839.84;4980998;28;19916;-48
2022/11/21 05:29:03;;;;;;;;;;;8.70;68.60;;;4.06;95.83;94835.66;4991377;28;19913;-48
2022/11/21 05:31:32;;;;;;;;;;;8.70;68.50;;;4.05;95.54;94838.56;4972719;28;19909;-49
2022/11/21 05:34:00;;;;;;;;;;;8.70;68.50;;;4.08;95.47;94840.72;4991368;28;19916;-48
2022/11/21 05:36:26;;;;;;;;;;;8.70;68.50;;;4.08;95.53;94833.59;4973510;28;20380;-54
2022/11/21 05:38:57;;;;;;;;;;;8.70;68.50;;;4.08;94.83;94828.31;4990144;28;19913;-48
2022/11/21 05:41:23;;;;;;;;;;;8.80;68.50;;;4.09;94.62;94823.84;4990138;28;19915;-48
2022/11/21 05:43:52;;;;;;;;;;;8.80;68.50;;;4.14;94.67;94827.38;4988700;28;19913;-48
2022/11/21 05:46:26;;;;;;;;;;;8.80;68.50;;;4.18;94.59;94836.38;4970904;28;19937;-48
2022/11/21 05:48:54;;;;;;;;;;;8.80;68.40;;;4.20;94.50;94840.59;4990090;28;19952;-48
2022/11/21 05:51:21;;;;;;;;;;;8.80;68.40;;;4.22;94.73;94843.78;4990449;28;20367;-47
2022/11/21 05:53:47;;;;;;;;;;;8.90;68.40;;;4.24;94.63;94833.81;4977479;28;19932;-48
2022/11/21 05:56:18;;;;;;;;;;;8.90;68.30;;;4.26;94.28;94837.00;4991859;28;19913;-48
2022/11/21 05:58:44;;;;;;;;;;;8.90;68.30;;;4.25;93.91;94844.09;4992793;28;20368;-48
2022/11/21 06:04:03;;;;;;;;;;;8.90;68.20;;;4.29;94.50;94854.97;4974159;28;19987;-49
2022/11/21 06:06:34;;;;;;;;;;;8.90;68.30;;;4.26;93.85;94851.00;4984774;28;19910;-48
2022/11/21 06:09:03;;;;;;;;;;;8.90;68.30;;;4.25;93.53;94841.47;4975512;28;19956;-48
2022/11/21 06:11:30;;;;;;;;;;;9.00;68.30;;;4.29;93.32;94854.97;4975863;28;19913;-48
2022/11/21 06:13:56;;;;;;;;;;;8.90;68.10;;;4.32;93.91;94849.19;4991550;28;20330;-48
2022/11/21 06:16:21;;;;;;;;;;;9.00;68.20;;;4.34;93.38;94841.84;4977381;28;19971;-48
2022/11/21 06:18:53;;;;;;;;;;;9.00;68.10;;;4.31;93.30;94839.72;4991122;28;20360;-47
2022/11/21 06:21:23;;;;;;;;;;;9.00;68.10;;;4.30;93.38;94836.28;4991006;28;20403;-48
2022/11/21 06:23:55;;;;;;;;;;;9.00;68.10;;;4.32;92.63;94834.19;4993357;28;19916;-48
2022/11/21 06:26:24;;;;;;;;;;;9.10;68.00;;;4.34;92.61;94821.56;4991384;28;19951;-47
2022/11/21 06:28:51;;;;;;;;;;;9.00;67.90;;;4.35;92.43;94828.41;4955699;28;19913;-48
2022/11/21 06:31:26;;;;;;;;;;;9.00;67.90;;;4.35;92.83;94832.91;4985644;28;19909;-49
2022/11/21 06:33:54;;;;;;;;;;;9.00;67.90;;;4.38;92.56;94833.19;4977810;28;20052;-48
2022/11/21 06:36:20;;;;;;;;;;;9.00;67.80;;;4.40;92.93;94833.78;4991723;28;19917;-49
2022/11/21 06:38:47;;;;;;;;;;;9.10;67.80;;;4.40;92.54;94833.78;4976529;28;20008;-47
2022/11/21 06:41:24;;;;;;;;;;;9.10;67.80;;;4.42;93.08;94830.91;4988288;28;19909;-48
2022/11/21 06:43:51;;;;;;;;;;;9.10;67.80;;;4.41;92.80;94830.09;4976111;28;19910;-49
2022/11/21 06:46:17;;;;;;;;;;;9.10;67.70;;;4.42;92.57;94838.81;4991896;28;19913;-49
2022/11/21 06:48:44;;;;;;;;;;;9.10;67.70;;;4.45;92.30;94842.78;4991354;28;19948;-48
2022/11/21 06:51:18;;;;;;;;;;;9.10;67.60;;;4.43;92.41;94832.50;4975849;28;19936;-48
2022/11/21 06:53:54;;;;;;;;;;;9.10;67.60;;;4.49;92.13;94830.72;4989002;28;19913;-48
2022/11/21 06:56:28;;;;;;;;;;;9.20;67.70;;;4.50;91.77;94833.09;4983552;28;19952;-48
2022/11/21 06:58:54;;;;;;;;;;;9.20;67.60;;;4.52;91.39;94848.69;4968672;28;20024;-49
2022/11/21 07:01:24;;;;;;;;;;;9.20;67.60;;;4.56;91.41;94855.06;4977454;28;19925;-48
2022/11/21 07:03:49;;;;;;;;;;;9.20;67.60;;;4.55;92.24;94853.50;4991323;28;20239;-51
2022/11/21 07:06:18;;;;;;;;;;;9.20;67.50;;;4.56;92.19;94844.53;4975537;28;19916;-49
2022/11/21 07:08:50;;;;;;;;;;;9.30;67.50;;;4.61;91.75;94837.47;4982249;28;19916;-48
2022/11/21 07:11:16;;;;;;;;;;;9.30;67.50;;;4.65;92.31;94835.16;4991714;28;19925;-50
2022/11/21 07:13:42;;;;;;;;;;;9.30;67.50;;;4.63;90.96;94831.94;4987652;28;20375;-48
2022/11/21 07:16:13;;;;;;;;;;;9.40;67.40;;;4.68;91.41;94831.22;4974931;28;20396;-48
2022/11/21 07:18:40;;;;;;;;;;;9.40;67.30;;;4.73;91.24;94828.63;4956308;28;19949;-55
2022/11/21 07:21:08;;;;;;;;;;;9.50;67.30;;;4.70;90.43;94827.31;4989706;28;19909;-50
2022/11/21 07:23:42;;;;;;;;;;;9.50;67.20;;;4.71;89.70;94831.53;4987054;28;19999;-48
2022/11/21 07:26:11;;;;;;;;;;;9.60;67.10;;;4.76;89.50;94831.56;4973093;28;19909;-47
2022/11/21 07:28:37;;;;;;;;;;;9.60;67.00;;;4.74;89.52;94831.03;4981405;28;19917;-54
2022/11/21 07:31:03;;;;;;;;;;;9.60;66.90;;;4.79;88.71;94825.78;4973869;28;19945;-52
2022/11/21 07:33:29;;;;;;;;;;;9.60;66.80;;;4.81;89.18;94825.56;4962912;28;20333;-47
2022/11/21 07:35:58;;;;;;;;;;;9.70;66.80;;;4.82;89.06;94822.66;4971773;28;19920;-48
2022/11/21 07:38:27;;;;;;;;;;;9.70;66.70;;;4.88;88.86;94820.88;4946802;28;19913;-48
2022/11/21 07:40:56;;;;;;;;;;;9.70;67.40;;;4.90;89.25;94813.53;4978302;28;19918;-47
2022/11/21 07:43:22;;;;;;;;;;;9.70;66.60;;;4.86;88.85;94815.88;4989057;28;20307;-54
2022/11/21 07:45:48;;;;;;;;;;;9.80;66.70;;;4.93;88.84;94809.59;4992977;28;19959;-48
2022/11/21 07:48:36;;;;;;;;;;;9.70;66.50;;;5.03;88.95;94810.50;4991662;28;19944;-48
2022/11/21 07:51:04;;;;;;;;;;;9.80;66.70;;;4.98;88.44;94801.72;4991426;28;20327;-52
2022/11/21 07:53:32;;;;;;;;;;;9.80;66.50;;;4.86;87.99;94800.03;4992044;28;19913;-52
2022/11/21 07:56:02;;;;;;;;;;;9.80;66.40;;;4.94;88.07;94804.06;4973817;28;20299;-48
2022/11/21 07:58:27;;;;;;;;;;;9.80;66.30;;;5.00;87.99;94802.28;4991516;28;19909;-47
2022/11/21 08:01:03;;;;;;;;;;;9.90;66.30;;;5.08;87.34;94801.84;4964520;28;19917;-48
2022/11/21 08:03:30;;;;;;;;;;;9.90;66.30;;;5.08;86.60;94809.78;4992466;28;19913;-48
2022/11/21 08:05:55;;;;;;;;;;;9.90;66.20;;;5.12;86.99;94802.16;4991569;28;19909;-51
2022/11/21 08:08:21;;;;;;;;;;;10.00;66.10;;;5.12;86.12;94795.03;4988823;28;19918;-50
2022/11/21 08:10:50;;;;;;;;;;;10.00;66.00;;;5.18;86.38;94801.16;4971692;28;19914;-53
2022/11/21 08:13:22;;;;;;;;;;;10.00;65.90;;;5.27;86.23;94802.31;4977006;28;19916;-50
2022/11/21 08:15:48;;;;;;;;;;;10.10;66.70;;;5.32;87.08;94805.75;4992671;28;20261;-50
2022/11/21 08:18:22;;;;;;;;;;;10.20;65.80;;;5.35;86.17;94804.47;4991907;28;19915;-50
2022/11/21 08:21:00;;;;;;;;;;;10.30;65.70;;;5.37;86.09;94802.38;4984420;28;20330;-50
2022/11/21 08:23:25;;;;;;;;;;;10.40;65.60;;;5.41;85.39;94816.69;4975637;28;19917;-53
2022/11/21 08:25:51;;;;;;;;;;;10.50;65.50;;;5.46;85.85;94808.03;4981736;28;19914;-50
2022/11/21 08:28:23;;;;;;;;;;;10.50;65.30;;;5.45;85.14;94806.41;4990978;28;19909;-53
2022/11/21 08:30:57;;;;;;;;;;;10.60;65.20;;;5.37;85.27;94802.38;4990492;28;19918;-50
2022/11/21 08:33:29;;;;;;;;;;;10.60;65.20;;;5.44;84.65;94794.25;4990601;28;19948;-50
2022/11/21 08:36:05;;;;;;;;;;;10.70;65.00;;;5.66;84.48;94788.88;4992148;28;20339;-51
2022/11/21 08:38:31;;;;;;;;;;;11.00;64.80;;;5.84;83.19;94790.34;4980756;28;19909;-51
2022/11/21 08:43:44;;;;;;;;;;;11.60;64.10;;;6.18;81.57;94781.06;4979825;28;19968;-51
2022/11/21 08:46:13;;;;;;;;;;;11.80;63.90;;;6.37;80.37;94757.63;4992358;28;20350;-50
2022/11/21 08:48:42;;;;;;;;;;;12.10;63.50;;;6.66;79.79;94757.22;4990046;28;19920;-55
2022/11/21 08:51:07;;;;;;;;;;;12.50;63.10;;;6.76;78.12;94754.59;4987161;28;19909;-51
2022/11/21 08:53:36;;;;;;;;;;;12.80;62.50;;;6.89;77.82;94754.13;4986290;28;20008;-51
2022/11/21 08:56:05;;;;;;;;;;;12.90;62.10;;;7.15;77.05;94740.94;4991002;28;19960;-53
2022/11/21 08:58:34;;;;;;;;;;;13.20;61.90;;;7.47;75.28;94738.03;4990276;28;20376;-50
2022/11/21 09:01:11;;;;;;;;;;;13.70;61.60;;;7.71;73.56;94730.34;4990992;28;20308;-50
2022/11/21 09:03:42;;;;;;;;;;;14.00;61.10;;;7.83;72.83;94733.50;4973996;28;19909;-50
2022/11/21 09:06:08;;;;;;;;;;;14.40;60.30;;;8.18;70.94;94721.22;4974170;28;19913;-51
2022/11/21 09:08:37;;;;;;;;;;;14.70;60.10;;;8.21;70.12;94722.53;4985884;28;19925;-52
2022/11/21 09:11:11;;;;;;;;;;;14.90;59.50;;;8.49;69.51;94724.59;4971858;28;19996;-53
2022/11/21 09:13:37;;;;;;;;;;;15.20;59.20;;;8.56;69.98;94726.97;4971257;28;19916;-50
2022/11/21 09:18:53;;;;;;;;;;;15.50;58.90;;;8.98;66.81;94734.44;4979100;28;20067;-52
2022/11/21 09:21:20;;;;;;;;;;;15.70;58.60;;;9.14;66.59;94721.06;4985699;28;19963;-50
2022/11/21 09:23:46;;;;;;;;;;;15.90;58.20;;;9.12;66.18;94718.69;4989761;28;20420;-51
2022/11/21 09:26:12;;;;;;;;;;;15.90;58.00;;;9.04;66.07;94713.97;4981638;28;19909;-53
2022/11/21 09:28:40;;;;;;;;;;;15.70;57.90;;;8.87;67.21;94716.16;4973826;28;19932;-50
2022/11/21 09:31:12;;;;;;;;;;;15.40;57.90;;;8.41;67.15;94709.22;4972239;28;20437;-52
2022/11/21 09:33:37;;;;;;;;;;;15.10;57.70;;;8.13;69.68;94705.31;4990354;28;19941;-55
2022/11/21 09:36:04;;;;;;;;;;;15.00;57.00;;;8.49;67.27;94703.38;4989505;28;19956;-52
2022/11/21 09:38:30;;;;;;;;;;;15.10;57.20;;;8.34;67.01;94701.53;4988460;28;19913;-53
2022/11/21 09:41:50;;;;;;;;;;;15.10;56.80;;;8.41;67.04;94698.63;4973669;28;19916;-51
2022/11/21 09:44:16;;;;;;;;;;;15.10;56.50;;;8.51;67.74;94687.16;4989568;28;19916;-50
2022/11/21 09:46:50;;;;;;;;;;;15.10;56.50;;;8.52;66.54;94692.22;4977251;28;20331;-50
2022/11/21 09:49:17;;;;;;;;;;;15.20;56.30;;;8.88;66.16;94686.69;4968003;28;19913;-50
2022/11/21 09:51:44;;;;;;;;;;;15.50;56.00;;;9.17;65.42;94685.97;4972734;28;19910;-50
2022/11/21 09:54:21;;;;;;;;;;;15.90;56.00;;;9.37;63.44;94672.53;4989719;28;19909;-56
2022/11/21 09:56:50;;;;;;;;;;;16.30;55.90;;;9.49;62.41;94667.66;4961554;28;19996;-52
2022/11/21 09:59:33;;;;;;;;;;;16.60;55.40;;;9.57;60.79;94660.13;4972516;28;20379;-51
2022/11/21 10:01:59;;;;;;;;;;;16.80;55.10;;;9.30;61.68;94650.00;4983187;28;19916;-56
2022/11/21 10:04:30;;;;;;;;;;;16.70;54.50;;;9.12;63.17;94640.84;4974127;28;19910;-52
2022/11/21 10:07:19;;;;;;;;;;;16.50;54.30;;;9.22;62.69;94644.22;4966007;28;20008;-56
2022/11/21 10:10:22;;;;;;;;;;;16.40;54.20;;;9.32;63.15;94629.25;4980627;28;19910;-57
2022/11/21 10:13:18;;;;;;;;;;;16.40;54.10;;;9.53;61.99;94630.66;4971789;28;19910;-56
2022/11/21 10:16:19;;;;;;;;;;;16.60;53.90;;;9.69;62.71;94626.00;4989305;28;19917;-55
2022/11/21 10:19:04;;;;;;;;;;;16.80;53.60;;;9.58;63.34;94622.63;4975559;28;20365;-57
2022/11/21 10:21:44;;;;;;;;;;;16.90;53.20;;;9.74;63.02;94620.59;4988340;28;19920;-56
2022/11/21 10:24:41;;;;;;;;;;;17.10;53.00;;;9.72;60.38;94618.25;4968391;28;20001;-56
2022/11/21 10:27:33;;;;;;;;;;;17.10;53.00;;;9.86;60.54;94607.69;4981521;28;20279;-52
2022/11/21 10:30:17;;;;;;;;;;;17.20;53.00;;;9.78;61.15;94600.38;4968679;28;19999;-54
2022/11/21 10:32:53;;;;;;;;;;;17.20;52.80;;;9.65;60.26;94598.34;4968429;28;19910;-56
2022/11/21 10:35:34;;;;;;;;;;;17.20;52.50;;;9.81;60.40;94591.81;4972845;28;19922;-57
2022/11/21 10:38:04;;;;;;;;;;;17.20;52.40;;;9.96;60.18;94578.34;4972374;28;20402;-57
2022/11/21 10:41:01;;;;;;;;;;;17.40;52.50;;;9.94;59.46;94569.84;4970302;28;20035;-57
2022/11/21 10:47:01;;;;;;;;;;;17.60;52.20;;;10.29;59.45;94554.53;4972217;28;22655;-56
2022/11/21 10:49:33;;;;;;;;;;;17.80;52.10;;;10.48;58.21;94545.75;4961904;28;20284;-53
2022/11/21 10:52:22;;;;;;;;;;;17.90;51.90;;;10.61;57.17;94539.69;4975663;28;20364;-55
2022/11/21 10:55:12;;;;;;;;;;;18.00;51.80;;;10.55;58.20;94524.88;4971083;28;19964;-55
2022/11/21 10:57:50;;;;;;;;;;;18.10;51.50;;;10.51;57.70;94524.66;4986532;28;19914;-58
2022/11/21 11:00:29;;;;;;;;;;;18.10;51.40;;;10.37;57.59;94513.97;4970719;28;19925;-58
2022/11/21 11:03:16;;;;;;;;;;;18.10;50.90;;;10.56;56.95;94507.81;4970866;28;19998;-57
2022/11/21 11:05:58;;;;;;;;;;;18.20;50.90;;;10.70;57.35;94498.00;4971967;28;20411;-57
2022/11/21 11:08:26;;;;;;;;;;;18.30;51.00;;;11.02;55.63;94489.19;4969930;28;19949;-54
2022/11/21 11:11:08;;;;;;;;;;;18.50;51.00;;;10.97;54.65;94481.31;4987065;28;20243;-54
2022/11/21 11:14:05;;;;;;;;;;;18.70;50.80;;;11.29;54.98;94461.00;4988982;28;19909;-55
2022/11/21 11:16:35;;;;;;;;;;;18.90;50.70;;;11.47;53.78;94459.31;4990096;28;20008;-56
2022/11/21 11:19:29;;;;;;;;;;;19.20;50.60;;;11.64;52.54;94459.53;4973799;28;19913;-56
2022/11/21 11:21:55;;;;;;;;;;;19.60;50.40;;;11.85;52.25;94454.59;4958513;28;20360;-54
2022/11/21 11:24:27;;;;;;;;;;;19.90;50.20;;;12.15;51.80;94441.66;4975150;28;19992;-57
2022/11/21 11:27:02;;;;;;;;;;;20.30;49.90;;;12.35;51.54;94441.19;4967786;28;19910;-58
2022/11/21 11:29:47;;;;;;;;;;;20.70;49.50;;;12.62;49.84;94418.91;4974115;28;19917;-51
2022/11/21 11:32:20;;;;;;;;;;;21.00;49.20;;;13.05;50.30;94413.00;4962371;28;19910;-56
2022/11/21 11:34:59;;;;;;;;;;;21.30;49.10;;;13.16;49.78;94411.63;4968764;28;19960;-58
2022/11/21 11:37:41;;;;;;;;;;;21.70;48.80;;;13.29;49.27;94403.84;4960755;28;19944;-50
2022/11/21 11:40:12;;;;;;;;;;;22.00;48.40;;;13.46;48.53;94408.44;4947555;28;19925;-52
2022/11/21 11:48:44;;;;;;;;;;;22.80;47.70;;;13.69;47.38;94379.69;4980170;28;19929;-56
2022/11/21 11:51:39;;;;;;;;;;;22.80;46.90;;;13.94;45.32;94373.56;4978658;28;19990;-52
2022/11/21 11:54:17;;;;;;;;;;;22.80;46.90;;;13.83;45.10;94372.31;4972920;28;19944;-52
2022/11/21 11:56:45;;;;;;;;;;;22.70;46.50;;;13.69;47.85;94371.66;4949527;28;20303;-52
2022/11/21 11:59:56;;;;;;;;;;;22.50;46.20;;;13.74;45.02;94376.88;4964674;28;20015;-54
2022/11/21 12:03:04;;;;;;;;;;;22.50;46.00;;;13.76;45.21;94361.31;4974426;28;19921;-55
2022/11/21 12:05:31;;;;;;;;;;;22.80;46.10;;;13.59;45.61;94360.16;4977692;28;20347;-53
2022/11/21 12:08:22;;;;;;;;;;;22.70;45.90;;;13.48;46.40;94350.09;4980286;28;19913;-55
2022/11/21 12:13:56;;;;;;;;;;;22.10;45.30;;;13.04;46.03;94338.47;4967070;28;19920;-55